sensor_id;sensor_type;location;lat;lon;timestamp;P1;durP1;ratioP1;P2;durP2;ratioP2
14141;SDS011;7151;52.246;4.820;2024-01-27T00:00:13;7.67;;;2.23;;
14141;SDS011;7151;52.246;4.820;2024-01-27T00:02:39;6.30;;;1.90;;
14141;SDS011;7151;52.246;4.820;2024-01-27T00:05:08;4.37;;;1.73;;
14141;SDS011;7151;52.246;4.820;2024-01-27T00:07:34;6.27;;;1.83;;
14141;SDS011;7151;52.246;4.820;2024-01-27T00:10:00;4.00;;;2.23;;
14141;SDS011;7151;52.246;4.820;2024-01-27T00:12:26;6.43;;;2.03;;
14141;SDS011;7151;52.246;4.820;2024-01-27T00:14:52;3.83;;;1.47;;
14141;SDS011;7151;52.246;4.820;2024-01-27T00:17:17;2.77;;;1.30;;
14141;SDS011;7151;52.246;4.820;2024-01-27T00:19:48;5.80;;;1.77;;
14141;SDS011;7151;52.246;4.820;2024-01-27T00:22:15;4.87;;;1.80;;
14141;SDS011;7151;52.246;4.820;2024-01-27T00:24:42;2.03;;;1.33;;
14141;SDS011;7151;52.246;4.820;2024-01-27T00:27:08;5.67;;;2.50;;
14141;SDS011;7151;52.246;4.820;2024-01-27T00:29:33;2.63;;;1.50;;
14141;SDS011;7151;52.246;4.820;2024-01-27T00:31:59;4.53;;;1.97;;
14141;SDS011;7151;52.246;4.820;2024-01-27T00:34:25;3.33;;;1.63;;
14141;SDS011;7151;52.246;4.820;2024-01-27T00:36:51;5.60;;;2.07;;
14141;SDS011;7151;52.246;4.820;2024-01-27T00:39:17;4.27;;;1.80;;
14141;SDS011;7151;52.246;4.820;2024-01-27T00:41:43;4.80;;;2.13;;
14141;SDS011;7151;52.246;4.820;2024-01-27T00:44:10;3.70;;;1.57;;
14141;SDS011;7151;52.246;4.820;2024-01-27T00:46:36;3.97;;;2.07;;
14141;SDS011;7151;52.246;4.820;2024-01-27T00:49:02;3.53;;;1.90;;
14141;SDS011;7151;52.246;4.820;2024-01-27T00:51:28;4.17;;;2.10;;
14141;SDS011;7151;52.246;4.820;2024-01-27T00:53:54;5.67;;;2.03;;
14141;SDS011;7151;52.246;4.820;2024-01-27T00:56:20;4.50;;;1.60;;
14141;SDS011;7151;52.246;4.820;2024-01-27T00:58:45;2.87;;;1.70;;
14141;SDS011;7151;52.246;4.820;2024-01-27T01:01:11;4.93;;;1.80;;
14141;SDS011;7151;52.246;4.820;2024-01-27T01:03:37;3.10;;;1.60;;
14141;SDS011;7151;52.246;4.820;2024-01-27T01:06:02;6.70;;;2.10;;
14141;SDS011;7151;52.246;4.820;2024-01-27T01:08:28;6.37;;;1.87;;
14141;SDS011;7151;52.246;4.820;2024-01-27T01:10:54;6.27;;;2.10;;
14141;SDS011;7151;52.246;4.820;2024-01-27T01:13:20;5.03;;;1.70;;
14141;SDS011;7151;52.246;4.820;2024-01-27T01:15:46;5.33;;;2.10;;
14141;SDS011;7151;52.246;4.820;2024-01-27T01:18:11;6.13;;;1.93;;
14141;SDS011;7151;52.246;4.820;2024-01-27T01:20:37;6.50;;;1.63;;
14141;SDS011;7151;52.246;4.820;2024-01-27T01:23:02;3.63;;;1.60;;
14141;SDS011;7151;52.246;4.820;2024-01-27T01:25:28;7.07;;;2.30;;
14141;SDS011;7151;52.246;4.820;2024-01-27T01:27:54;4.20;;;1.57;;
14141;SDS011;7151;52.246;4.820;2024-01-27T01:30:20;3.93;;;1.83;;
14141;SDS011;7151;52.246;4.820;2024-01-27T01:32:45;5.00;;;1.47;;
14141;SDS011;7151;52.246;4.820;2024-01-27T01:35:11;4.13;;;1.67;;
14141;SDS011;7151;52.246;4.820;2024-01-27T01:37:37;5.23;;;2.10;;
14141;SDS011;7151;52.246;4.820;2024-01-27T01:40:02;2.80;;;1.60;;
14141;SDS011;7151;52.246;4.820;2024-01-27T01:42:28;5.93;;;1.53;;
14141;SDS011;7151;52.246;4.820;2024-01-27T01:44:54;6.63;;;1.83;;
14141;SDS011;7151;52.246;4.820;2024-01-27T01:47:20;5.80;;;1.77;;
14141;SDS011;7151;52.246;4.820;2024-01-27T01:49:47;7.93;;;1.87;;
14141;SDS011;7151;52.246;4.820;2024-01-27T01:52:14;5.03;;;1.90;;
14141;SDS011;7151;52.246;4.820;2024-01-27T01:54:46;2.73;;;1.63;;
14141;SDS011;7151;52.246;4.820;2024-01-27T01:57:15;5.63;;;1.77;;
14141;SDS011;7151;52.246;4.820;2024-01-27T01:59:41;4.70;;;1.50;;
14141;SDS011;7151;52.246;4.820;2024-01-27T02:02:13;5.13;;;1.67;;
14141;SDS011;7151;52.246;4.820;2024-01-27T02:04:39;7.07;;;1.80;;
14141;SDS011;7151;52.246;4.820;2024-01-27T02:07:08;4.30;;;1.60;;
14141;SDS011;7151;52.246;4.820;2024-01-27T02:09:34;8.57;;;1.50;;
14141;SDS011;7151;52.246;4.820;2024-01-27T02:12:00;1.73;;;1.30;;
14141;SDS011;7151;52.246;4.820;2024-01-27T02:14:26;4.30;;;1.70;;
14141;SDS011;7151;52.246;4.820;2024-01-27T02:16:52;3.73;;;1.77;;
14141;SDS011;7151;52.246;4.820;2024-01-27T02:19:18;4.30;;;1.43;;
14141;SDS011;7151;52.246;4.820;2024-01-27T02:21:44;6.23;;;2.00;;
14141;SDS011;7151;52.246;4.820;2024-01-27T02:24:13;3.63;;;1.30;;
14141;SDS011;7151;52.246;4.820;2024-01-27T02:26:38;3.70;;;1.43;;
14141;SDS011;7151;52.246;4.820;2024-01-27T02:29:04;3.07;;;1.20;;
14141;SDS011;7151;52.246;4.820;2024-01-27T02:31:30;5.87;;;2.23;;
14141;SDS011;7151;52.246;4.820;2024-01-27T02:33:55;5.00;;;1.57;;
14141;SDS011;7151;52.246;4.820;2024-01-27T02:36:21;2.87;;;1.43;;
14141;SDS011;7151;52.246;4.820;2024-01-27T02:38:46;6.87;;;2.00;;
14141;SDS011;7151;52.246;4.820;2024-01-27T02:41:12;4.43;;;1.47;;
14141;SDS011;7151;52.246;4.820;2024-01-27T02:43:38;7.97;;;2.13;;
14141;SDS011;7151;52.246;4.820;2024-01-27T02:46:09;3.93;;;1.20;;
14141;SDS011;7151;52.246;4.820;2024-01-27T02:48:44;4.43;;;1.73;;
14141;SDS011;7151;52.246;4.820;2024-01-27T02:51:13;4.77;;;2.60;;
14141;SDS011;7151;52.246;4.820;2024-01-27T02:53:43;2.37;;;1.30;;
14141;SDS011;7151;52.246;4.820;2024-01-27T02:56:09;2.77;;;1.50;;
14141;SDS011;7151;52.246;4.820;2024-01-27T02:58:34;3.40;;;1.40;;
14141;SDS011;7151;52.246;4.820;2024-01-27T03:01:00;4.60;;;2.27;;
14141;SDS011;7151;52.246;4.820;2024-01-27T03:03:26;3.80;;;2.00;;
14141;SDS011;7151;52.246;4.820;2024-01-27T03:05:51;5.10;;;1.50;;
14141;SDS011;7151;52.246;4.820;2024-01-27T03:08:17;3.53;;;1.40;;
14141;SDS011;7151;52.246;4.820;2024-01-27T03:10:42;3.43;;;1.53;;
14141;SDS011;7151;52.246;4.820;2024-01-27T03:13:08;5.10;;;1.33;;
14141;SDS011;7151;52.246;4.820;2024-01-27T03:15:34;6.77;;;1.87;;
14141;SDS011;7151;52.246;4.820;2024-01-27T03:17:59;3.83;;;1.37;;
14141;SDS011;7151;52.246;4.820;2024-01-27T03:20:25;3.83;;;1.67;;
14141;SDS011;7151;52.246;4.820;2024-01-27T03:22:50;2.00;;;1.07;;
14141;SDS011;7151;52.246;4.820;2024-01-27T03:25:16;5.87;;;1.70;;
14141;SDS011;7151;52.246;4.820;2024-01-27T03:27:42;6.50;;;1.87;;
14141;SDS011;7151;52.246;4.820;2024-01-27T03:30:08;3.03;;;1.60;;
14141;SDS011;7151;52.246;4.820;2024-01-27T03:32:34;5.67;;;1.50;;
14141;SDS011;7151;52.246;4.820;2024-01-27T03:35:00;4.50;;;1.43;;
14141;SDS011;7151;52.246;4.820;2024-01-27T03:37:26;5.67;;;1.70;;
14141;SDS011;7151;52.246;4.820;2024-01-27T03:39:51;3.90;;;1.80;;
14141;SDS011;7151;52.246;4.820;2024-01-27T03:42:17;2.37;;;1.67;;
14141;SDS011;7151;52.246;4.820;2024-01-27T03:44:43;4.03;;;1.57;;
14141;SDS011;7151;52.246;4.820;2024-01-27T03:47:08;4.00;;;1.70;;
14141;SDS011;7151;52.246;4.820;2024-01-27T03:49:34;4.27;;;1.67;;
14141;SDS011;7151;52.246;4.820;2024-01-27T03:52:00;4.23;;;1.60;;
14141;SDS011;7151;52.246;4.820;2024-01-27T03:54:26;5.53;;;1.60;;
14141;SDS011;7151;52.246;4.820;2024-01-27T03:59:52;7.20;;;2.07;;
14141;SDS011;7151;52.246;4.820;2024-01-27T04:02:18;3.43;;;1.20;;
14141;SDS011;7151;52.246;4.820;2024-01-27T04:04:43;3.50;;;1.23;;
14141;SDS011;7151;52.246;4.820;2024-01-27T04:07:09;5.90;;;1.70;;
14141;SDS011;7151;52.246;4.820;2024-01-27T04:09:34;5.17;;;1.43;;
14141;SDS011;7151;52.246;4.820;2024-01-27T04:12:00;4.20;;;1.40;;
14141;SDS011;7151;52.246;4.820;2024-01-27T04:14:26;3.37;;;1.17;;
14141;SDS011;7151;52.246;4.820;2024-01-27T04:16:52;5.73;;;1.70;;
14141;SDS011;7151;52.246;4.820;2024-01-27T04:19:17;3.67;;;1.60;;
14141;SDS011;7151;52.246;4.820;2024-01-27T04:21:43;4.60;;;1.50;;
14141;SDS011;7151;52.246;4.820;2024-01-27T04:24:09;8.47;;;1.97;;
14141;SDS011;7151;52.246;4.820;2024-01-27T04:26:34;7.35;;;1.95;;
14141;SDS011;7151;52.246;4.820;2024-01-27T04:29:00;5.43;;;1.67;;
14141;SDS011;7151;52.246;4.820;2024-01-27T04:31:25;6.43;;;1.50;;
14141;SDS011;7151;52.246;4.820;2024-01-27T04:33:51;4.00;;;1.63;;
14141;SDS011;7151;52.246;4.820;2024-01-27T04:36:26;4.00;;;1.57;;
14141;SDS011;7151;52.246;4.820;2024-01-27T04:38:55;6.43;;;1.47;;
14141;SDS011;7151;52.246;4.820;2024-01-27T04:41:21;3.97;;;1.50;;
14141;SDS011;7151;52.246;4.820;2024-01-27T04:43:47;4.17;;;1.63;;
14141;SDS011;7151;52.246;4.820;2024-01-27T04:46:12;4.63;;;1.50;;
14141;SDS011;7151;52.246;4.820;2024-01-27T04:48:38;1.70;;;1.30;;
14141;SDS011;7151;52.246;4.820;2024-01-27T04:51:03;4.53;;;1.47;;
14141;SDS011;7151;52.246;4.820;2024-01-27T04:53:29;4.30;;;2.10;;
14141;SDS011;7151;52.246;4.820;2024-01-27T04:55:55;4.93;;;1.67;;
14141;SDS011;7151;52.246;4.820;2024-01-27T04:58:20;5.43;;;1.87;;
14141;SDS011;7151;52.246;4.820;2024-01-27T05:00:46;5.27;;;1.77;;
14141;SDS011;7151;52.246;4.820;2024-01-27T05:03:11;5.57;;;2.03;;
14141;SDS011;7151;52.246;4.820;2024-01-27T05:05:42;7.80;;;1.50;;
14141;SDS011;7151;52.246;4.820;2024-01-27T05:08:08;6.60;;;1.90;;
14141;SDS011;7151;52.246;4.820;2024-01-27T05:10:35;5.43;;;1.60;;
14141;SDS011;7151;52.246;4.820;2024-01-27T05:13:03;6.10;;;1.70;;
14141;SDS011;7151;52.246;4.820;2024-01-27T05:15:29;7.50;;;2.20;;
14141;SDS011;7151;52.246;4.820;2024-01-27T05:17:55;5.07;;;1.87;;
14141;SDS011;7151;52.246;4.820;2024-01-27T05:20:20;5.67;;;2.00;;
14141;SDS011;7151;52.246;4.820;2024-01-27T05:22:46;4.40;;;2.10;;
14141;SDS011;7151;52.246;4.820;2024-01-27T05:25:11;8.37;;;2.27;;
14141;SDS011;7151;52.246;4.820;2024-01-27T05:27:37;8.57;;;2.23;;
14141;SDS011;7151;52.246;4.820;2024-01-27T05:30:04;4.53;;;2.27;;
14141;SDS011;7151;52.246;4.820;2024-01-27T05:32:34;3.17;;;1.53;;
14141;SDS011;7151;52.246;4.820;2024-01-27T05:35:00;7.87;;;2.10;;
14141;SDS011;7151;52.246;4.820;2024-01-27T05:37:26;6.37;;;2.50;;
14141;SDS011;7151;52.246;4.820;2024-01-27T05:39:51;8.40;;;3.30;;
14141;SDS011;7151;52.246;4.820;2024-01-27T05:42:17;8.07;;;2.57;;
14141;SDS011;7151;52.246;4.820;2024-01-27T05:44:43;8.03;;;2.40;;
14141;SDS011;7151;52.246;4.820;2024-01-27T05:47:10;5.23;;;2.37;;
14141;SDS011;7151;52.246;4.820;2024-01-27T05:49:36;5.47;;;2.43;;
14141;SDS011;7151;52.246;4.820;2024-01-27T05:52:02;6.33;;;3.40;;
14141;SDS011;7151;52.246;4.820;2024-01-27T05:54:28;5.27;;;2.80;;
14141;SDS011;7151;52.246;4.820;2024-01-27T05:56:53;2.60;;;2.00;;
14141;SDS011;7151;52.246;4.820;2024-01-27T05:59:19;5.67;;;2.37;;
14141;SDS011;7151;52.246;4.820;2024-01-27T06:01:45;3.93;;;2.70;;
14141;SDS011;7151;52.246;4.820;2024-01-27T06:04:11;3.80;;;2.30;;
14141;SDS011;7151;52.246;4.820;2024-01-27T06:06:39;4.37;;;2.43;;
14141;SDS011;7151;52.246;4.820;2024-01-27T06:09:05;12.13;;;4.03;;
14141;SDS011;7151;52.246;4.820;2024-01-27T06:11:38;4.67;;;3.10;;
14141;SDS011;7151;52.246;4.820;2024-01-27T06:14:04;5.70;;;2.73;;
14141;SDS011;7151;52.246;4.820;2024-01-27T06:16:30;6.07;;;2.30;;
14141;SDS011;7151;52.246;4.820;2024-01-27T06:18:55;3.83;;;2.80;;
14141;SDS011;7151;52.246;4.820;2024-01-27T06:21:21;4.07;;;2.70;;
14141;SDS011;7151;52.246;4.820;2024-01-27T06:23:47;8.73;;;3.13;;
14141;SDS011;7151;52.246;4.820;2024-01-27T06:26:12;8.73;;;3.53;;
14141;SDS011;7151;52.246;4.820;2024-01-27T06:28:39;7.73;;;3.23;;
14141;SDS011;7151;52.246;4.820;2024-01-27T06:31:08;4.47;;;2.67;;
14141;SDS011;7151;52.246;4.820;2024-01-27T06:33:36;8.67;;;3.10;;
14141;SDS011;7151;52.246;4.820;2024-01-27T06:36:02;9.60;;;3.27;;
14141;SDS011;7151;52.246;4.820;2024-01-27T06:38:28;4.50;;;3.00;;
14141;SDS011;7151;52.246;4.820;2024-01-27T06:40:53;9.03;;;3.80;;
14141;SDS011;7151;52.246;4.820;2024-01-27T06:43:19;5.63;;;3.10;;
14141;SDS011;7151;52.246;4.820;2024-01-27T06:45:45;4.73;;;3.27;;
14141;SDS011;7151;52.246;4.820;2024-01-27T06:48:10;7.33;;;3.43;;
14141;SDS011;7151;52.246;4.820;2024-01-27T06:50:36;6.40;;;3.10;;
14141;SDS011;7151;52.246;4.820;2024-01-27T06:53:05;7.00;;;3.17;;
14141;SDS011;7151;52.246;4.820;2024-01-27T06:55:30;5.97;;;3.27;;
14141;SDS011;7151;52.246;4.820;2024-01-27T06:57:56;3.73;;;2.63;;
14141;SDS011;7151;52.246;4.820;2024-01-27T07:00:22;5.10;;;2.77;;
14141;SDS011;7151;52.246;4.820;2024-01-27T07:02:48;5.77;;;3.10;;
14141;SDS011;7151;52.246;4.820;2024-01-27T07:05:13;8.87;;;3.27;;
14141;SDS011;7151;52.246;4.820;2024-01-27T07:07:42;5.63;;;3.97;;
14141;SDS011;7151;52.246;4.820;2024-01-27T07:10:08;6.33;;;3.23;;
14141;SDS011;7151;52.246;4.820;2024-01-27T07:12:42;7.63;;;3.23;;
14141;SDS011;7151;52.246;4.820;2024-01-27T07:15:10;7.10;;;3.10;;
14141;SDS011;7151;52.246;4.820;2024-01-27T07:17:36;5.90;;;3.10;;
14141;SDS011;7151;52.246;4.820;2024-01-27T07:20:02;5.73;;;2.80;;
14141;SDS011;7151;52.246;4.820;2024-01-27T07:22:28;7.43;;;3.23;;
14141;SDS011;7151;52.246;4.820;2024-01-27T07:24:53;7.87;;;3.83;;
14141;SDS011;7151;52.246;4.820;2024-01-27T07:27:22;8.30;;;2.90;;
14141;SDS011;7151;52.246;4.820;2024-01-27T07:29:48;7.97;;;3.33;;
14141;SDS011;7151;52.246;4.820;2024-01-27T07:32:14;10.63;;;3.77;;
14141;SDS011;7151;52.246;4.820;2024-01-27T07:34:40;5.13;;;3.30;;
14141;SDS011;7151;52.246;4.820;2024-01-27T07:37:06;8.27;;;3.43;;
14141;SDS011;7151;52.246;4.820;2024-01-27T07:39:36;7.97;;;2.90;;
14141;SDS011;7151;52.246;4.820;2024-01-27T07:42:01;4.20;;;2.67;;
14141;SDS011;7151;52.246;4.820;2024-01-27T07:44:27;6.30;;;3.40;;
14141;SDS011;7151;52.246;4.820;2024-01-27T07:46:53;7.20;;;3.30;;
14141;SDS011;7151;52.246;4.820;2024-01-27T07:49:19;6.77;;;3.50;;
14141;SDS011;7151;52.246;4.820;2024-01-27T07:51:44;8.37;;;3.40;;
14141;SDS011;7151;52.246;4.820;2024-01-27T07:54:10;10.30;;;4.10;;
14141;SDS011;7151;52.246;4.820;2024-01-27T07:56:37;5.33;;;3.60;;
14141;SDS011;7151;52.246;4.820;2024-01-27T07:59:03;8.43;;;3.87;;
14141;SDS011;7151;52.246;4.820;2024-01-27T08:01:28;7.17;;;3.57;;
14141;SDS011;7151;52.246;4.820;2024-01-27T08:03:54;7.83;;;3.57;;
14141;SDS011;7151;52.246;4.820;2024-01-27T08:06:26;6.63;;;3.40;;
14141;SDS011;7151;52.246;4.820;2024-01-27T08:08:53;8.77;;;3.97;;
14141;SDS011;7151;52.246;4.820;2024-01-27T08:11:19;7.43;;;3.30;;
14141;SDS011;7151;52.246;4.820;2024-01-27T08:13:44;6.90;;;3.53;;
14141;SDS011;7151;52.246;4.820;2024-01-27T08:16:10;6.17;;;3.40;;
14141;SDS011;7151;52.246;4.820;2024-01-27T08:18:40;5.57;;;3.57;;
14141;SDS011;7151;52.246;4.820;2024-01-27T08:21:08;10.50;;;3.20;;
14141;SDS011;7151;52.246;4.820;2024-01-27T08:23:38;10.73;;;4.60;;
14141;SDS011;7151;52.246;4.820;2024-01-27T08:26:03;4.23;;;3.57;;
14141;SDS011;7151;52.246;4.820;2024-01-27T08:28:29;7.67;;;4.07;;
14141;SDS011;7151;52.246;4.820;2024-01-27T08:30:55;5.40;;;3.70;;
14141;SDS011;7151;52.246;4.820;2024-01-27T08:33:21;10.43;;;3.67;;
14141;SDS011;7151;52.246;4.820;2024-01-27T08:35:46;5.80;;;3.67;;
14141;SDS011;7151;52.246;4.820;2024-01-27T08:38:14;7.67;;;3.73;;
14141;SDS011;7151;52.246;4.820;2024-01-27T08:40:40;6.07;;;3.80;;
14141;SDS011;7151;52.246;4.820;2024-01-27T08:43:06;8.20;;;3.97;;
14141;SDS011;7151;52.246;4.820;2024-01-27T08:45:32;6.50;;;4.00;;
14141;SDS011;7151;52.246;4.820;2024-01-27T08:47:58;8.03;;;3.83;;
14141;SDS011;7151;52.246;4.820;2024-01-27T08:50:23;6.70;;;4.70;;
14141;SDS011;7151;52.246;4.820;2024-01-27T08:52:49;6.57;;;4.23;;
14141;SDS011;7151;52.246;4.820;2024-01-27T08:55:15;6.70;;;4.67;;
14141;SDS011;7151;52.246;4.820;2024-01-27T08:57:44;6.33;;;3.67;;
14141;SDS011;7151;52.246;4.820;2024-01-27T09:00:11;8.23;;;3.90;;
14141;SDS011;7151;52.246;4.820;2024-01-27T09:02:38;10.17;;;3.93;;
14141;SDS011;7151;52.246;4.820;2024-01-27T09:05:04;9.27;;;4.40;;
14141;SDS011;7151;52.246;4.820;2024-01-27T09:07:30;7.50;;;3.83;;
14141;SDS011;7151;52.246;4.820;2024-01-27T09:10:02;5.20;;;3.70;;
14141;SDS011;7151;52.246;4.820;2024-01-27T09:12:28;9.57;;;4.50;;
14141;SDS011;7151;52.246;4.820;2024-01-27T09:14:53;7.77;;;4.33;;
14141;SDS011;7151;52.246;4.820;2024-01-27T09:17:20;8.97;;;3.93;;
14141;SDS011;7151;52.246;4.820;2024-01-27T09:19:45;8.73;;;4.23;;
14141;SDS011;7151;52.246;4.820;2024-01-27T09:22:11;9.07;;;4.53;;
14141;SDS011;7151;52.246;4.820;2024-01-27T09:24:37;10.53;;;3.80;;
14141;SDS011;7151;52.246;4.820;2024-01-27T09:27:02;8.33;;;4.67;;
14141;SDS011;7151;52.246;4.820;2024-01-27T09:29:31;8.90;;;4.00;;
14141;SDS011;7151;52.246;4.820;2024-01-27T09:31:57;5.70;;;3.97;;
14141;SDS011;7151;52.246;4.820;2024-01-27T09:34:23;6.30;;;3.70;;
14141;SDS011;7151;52.246;4.820;2024-01-27T09:36:48;9.87;;;3.80;;
14141;SDS011;7151;52.246;4.820;2024-01-27T09:39:14;8.53;;;4.17;;
14141;SDS011;7151;52.246;4.820;2024-01-27T09:41:40;7.60;;;4.03;;
14141;SDS011;7151;52.246;4.820;2024-01-27T09:44:06;13.97;;;3.60;;
14141;SDS011;7151;52.246;4.820;2024-01-27T09:46:31;9.60;;;5.03;;
14141;SDS011;7151;52.246;4.820;2024-01-27T09:48:57;7.50;;;4.40;;
14141;SDS011;7151;52.246;4.820;2024-01-27T09:51:26;13.23;;;4.33;;
14141;SDS011;7151;52.246;4.820;2024-01-27T09:53:52;8.03;;;4.67;;
14141;SDS011;7151;52.246;4.820;2024-01-27T09:56:18;8.93;;;3.93;;
14141;SDS011;7151;52.246;4.820;2024-01-27T09:58:45;6.10;;;3.17;;
14141;SDS011;7151;52.246;4.820;2024-01-27T10:01:11;8.10;;;4.10;;
14141;SDS011;7151;52.246;4.820;2024-01-27T10:03:38;9.47;;;4.20;;
14141;SDS011;7151;52.246;4.820;2024-01-27T10:06:08;7.30;;;3.67;;
14141;SDS011;7151;52.246;4.820;2024-01-27T10:08:35;6.10;;;3.20;;
14141;SDS011;7151;52.246;4.820;2024-01-27T10:11:05;6.67;;;3.43;;
14141;SDS011;7151;52.246;4.820;2024-01-27T10:14:05;5.43;;;3.67;;
14141;SDS011;7151;52.246;4.820;2024-01-27T10:16:43;7.00;;;3.80;;
14141;SDS011;7151;52.246;4.820;2024-01-27T10:19:16;7.77;;;3.57;;
14141;SDS011;7151;52.246;4.820;2024-01-27T10:21:46;4.60;;;3.10;;
14141;SDS011;7151;52.246;4.820;2024-01-27T10:24:16;7.40;;;3.40;;
14141;SDS011;7151;52.246;4.820;2024-01-27T10:26:41;11.53;;;4.07;;
14141;SDS011;7151;52.246;4.820;2024-01-27T10:29:07;7.33;;;3.30;;
14141;SDS011;7151;52.246;4.820;2024-01-27T10:31:34;9.17;;;3.13;;
14141;SDS011;7151;52.246;4.820;2024-01-27T10:34:07;6.63;;;3.63;;
14141;SDS011;7151;52.246;4.820;2024-01-27T10:36:40;6.63;;;3.33;;
14141;SDS011;7151;52.246;4.820;2024-01-27T10:39:14;4.93;;;3.40;;
14141;SDS011;7151;52.246;4.820;2024-01-27T10:41:45;10.93;;;4.10;;
14141;SDS011;7151;52.246;4.820;2024-01-27T10:44:15;6.13;;;2.40;;
14141;SDS011;7151;52.246;4.820;2024-01-27T10:46:46;7.50;;;3.43;;
14141;SDS011;7151;52.246;4.820;2024-01-27T10:49:13;4.00;;;2.80;;
14141;SDS011;7151;52.246;4.820;2024-01-27T10:51:51;6.00;;;3.10;;
14141;SDS011;7151;52.246;4.820;2024-01-27T10:54:24;8.33;;;2.93;;
14141;SDS011;7151;52.246;4.820;2024-01-27T10:56:53;5.53;;;3.27;;
14141;SDS011;7151;52.246;4.820;2024-01-27T10:59:20;5.50;;;2.67;;
14141;SDS011;7151;52.246;4.820;2024-01-27T11:01:48;3.43;;;2.47;;
14141;SDS011;7151;52.246;4.820;2024-01-27T11:04:17;5.57;;;2.73;;
14141;SDS011;7151;52.246;4.820;2024-01-27T11:06:45;8.67;;;2.67;;
14141;SDS011;7151;52.246;4.820;2024-01-27T11:09:13;5.47;;;2.70;;
14141;SDS011;7151;52.246;4.820;2024-01-27T11:11:40;5.57;;;2.97;;
14141;SDS011;7151;52.246;4.820;2024-01-27T11:14:08;11.90;;;3.13;;
14141;SDS011;7151;52.246;4.820;2024-01-27T11:16:36;6.17;;;2.93;;
14141;SDS011;7151;52.246;4.820;2024-01-27T11:19:11;5.70;;;2.67;;
14141;SDS011;7151;52.246;4.820;2024-01-27T11:21:37;4.57;;;2.70;;
14141;SDS011;7151;52.246;4.820;2024-01-27T11:24:15;8.37;;;2.63;;
14141;SDS011;7151;52.246;4.820;2024-01-27T11:26:43;6.50;;;2.53;;
14141;SDS011;7151;52.246;4.820;2024-01-27T11:29:09;12.07;;;2.90;;
14141;SDS011;7151;52.246;4.820;2024-01-27T11:31:47;5.00;;;2.27;;
14141;SDS011;7151;52.246;4.820;2024-01-27T11:34:13;5.37;;;2.40;;
14141;SDS011;7151;52.246;4.820;2024-01-27T11:36:43;5.93;;;2.67;;
14141;SDS011;7151;52.246;4.820;2024-01-27T11:39:28;8.47;;;2.40;;
14141;SDS011;7151;52.246;4.820;2024-01-27T11:42:04;9.30;;;3.40;;
14141;SDS011;7151;52.246;4.820;2024-01-27T11:44:35;6.57;;;2.70;;
14141;SDS011;7151;52.246;4.820;2024-01-27T11:47:01;6.03;;;2.43;;
14141;SDS011;7151;52.246;4.820;2024-01-27T11:49:27;3.83;;;2.17;;
14141;SDS011;7151;52.246;4.820;2024-01-27T11:51:53;6.60;;;2.50;;
14141;SDS011;7151;52.246;4.820;2024-01-27T11:54:19;4.50;;;2.37;;
14141;SDS011;7151;52.246;4.820;2024-01-27T11:56:45;5.03;;;2.10;;
14141;SDS011;7151;52.246;4.820;2024-01-27T11:59:11;6.63;;;2.00;;
14141;SDS011;7151;52.246;4.820;2024-01-27T12:01:37;5.43;;;2.30;;
14141;SDS011;7151;52.246;4.820;2024-01-27T12:04:06;3.37;;;1.87;;
14141;SDS011;7151;52.246;4.820;2024-01-27T12:06:34;8.80;;;2.40;;
14141;SDS011;7151;52.246;4.820;2024-01-27T12:08:59;5.43;;;2.30;;
14141;SDS011;7151;52.246;4.820;2024-01-27T12:11:25;5.93;;;2.20;;
14141;SDS011;7151;52.246;4.820;2024-01-27T12:13:51;5.30;;;2.43;;
14141;SDS011;7151;52.246;4.820;2024-01-27T12:16:18;2.87;;;1.93;;
14141;SDS011;7151;52.246;4.820;2024-01-27T12:18:44;7.07;;;2.27;;
14141;SDS011;7151;52.246;4.820;2024-01-27T12:21:13;2.83;;;1.80;;
14141;SDS011;7151;52.246;4.820;2024-01-27T12:23:50;4.57;;;2.00;;
14141;SDS011;7151;52.246;4.820;2024-01-27T12:26:16;3.20;;;1.50;;
14141;SDS011;7151;52.246;4.820;2024-01-27T12:28:45;4.87;;;1.90;;
14141;SDS011;7151;52.246;4.820;2024-01-27T12:31:12;3.67;;;1.80;;
14141;SDS011;7151;52.246;4.820;2024-01-27T12:33:38;6.93;;;2.67;;
14141;SDS011;7151;52.246;4.820;2024-01-27T12:36:07;3.67;;;1.70;;
14141;SDS011;7151;52.246;4.820;2024-01-27T12:38:36;6.53;;;2.40;;
14141;SDS011;7151;52.246;4.820;2024-01-27T12:41:01;3.23;;;2.00;;
14141;SDS011;7151;52.246;4.820;2024-01-27T12:43:27;6.83;;;2.33;;
14141;SDS011;7151;52.246;4.820;2024-01-27T12:45:53;6.23;;;2.30;;
14141;SDS011;7151;52.246;4.820;2024-01-27T12:48:18;7.07;;;2.60;;
14141;SDS011;7151;52.246;4.820;2024-01-27T12:50:44;5.17;;;2.07;;
14141;SDS011;7151;52.246;4.820;2024-01-27T12:53:09;7.13;;;2.90;;
14141;SDS011;7151;52.246;4.820;2024-01-27T12:55:38;7.87;;;2.53;;
14141;SDS011;7151;52.246;4.820;2024-01-27T12:58:04;5.90;;;2.00;;
14141;SDS011;7151;52.246;4.820;2024-01-27T13:00:30;7.67;;;2.30;;
14141;SDS011;7151;52.246;4.820;2024-01-27T13:02:56;3.93;;;1.93;;
14141;SDS011;7151;52.246;4.820;2024-01-27T13:05:21;6.60;;;2.30;;
14141;SDS011;7151;52.246;4.820;2024-01-27T13:07:47;4.67;;;2.20;;
14141;SDS011;7151;52.246;4.820;2024-01-27T13:10:13;5.43;;;2.23;;
14141;SDS011;7151;52.246;4.820;2024-01-27T13:12:39;6.23;;;2.27;;
14141;SDS011;7151;52.246;4.820;2024-01-27T13:15:04;6.53;;;2.57;;
14141;SDS011;7151;52.246;4.820;2024-01-27T13:17:36;4.63;;;2.17;;
14141;SDS011;7151;52.246;4.820;2024-01-27T13:20:01;3.10;;;2.27;;
14141;SDS011;7151;52.246;4.820;2024-01-27T13:22:27;7.23;;;2.90;;
14141;SDS011;7151;52.246;4.820;2024-01-27T13:24:53;8.00;;;2.70;;
14141;SDS011;7151;52.246;4.820;2024-01-27T13:27:19;6.10;;;2.83;;
14141;SDS011;7151;52.246;4.820;2024-01-27T13:29:45;6.60;;;2.60;;
14141;SDS011;7151;52.246;4.820;2024-01-27T13:32:11;10.47;;;3.63;;
14141;SDS011;7151;52.246;4.820;2024-01-27T13:34:36;7.23;;;3.00;;
14141;SDS011;7151;52.246;4.820;2024-01-27T13:37:03;4.60;;;2.60;;
14141;SDS011;7151;52.246;4.820;2024-01-27T13:39:29;4.90;;;2.10;;
14141;SDS011;7151;52.246;4.820;2024-01-27T13:41:54;8.80;;;2.50;;
14141;SDS011;7151;52.246;4.820;2024-01-27T13:44:20;4.47;;;2.70;;
14141;SDS011;7151;52.246;4.820;2024-01-27T13:46:46;6.60;;;2.80;;
14141;SDS011;7151;52.246;4.820;2024-01-27T13:49:12;5.30;;;2.83;;
14141;SDS011;7151;52.246;4.820;2024-01-27T13:51:38;5.30;;;3.10;;
14141;SDS011;7151;52.246;4.820;2024-01-27T13:54:04;8.40;;;2.90;;
14141;SDS011;7151;52.246;4.820;2024-01-27T13:56:36;4.57;;;2.83;;
14141;SDS011;7151;52.246;4.820;2024-01-27T13:59:01;4.00;;;2.30;;
14141;SDS011;7151;52.246;4.820;2024-01-27T14:01:29;6.17;;;2.67;;
14141;SDS011;7151;52.246;4.820;2024-01-27T14:03:54;4.13;;;2.10;;
14141;SDS011;7151;52.246;4.820;2024-01-27T14:06:20;5.90;;;3.53;;
14141;SDS011;7151;52.246;4.820;2024-01-27T14:08:46;7.13;;;3.27;;
14141;SDS011;7151;52.246;4.820;2024-01-27T14:11:11;5.27;;;2.50;;
14141;SDS011;7151;52.246;4.820;2024-01-27T14:13:37;8.93;;;2.60;;
14141;SDS011;7151;52.246;4.820;2024-01-27T14:16:03;9.30;;;2.57;;
14141;SDS011;7151;52.246;4.820;2024-01-27T14:18:28;4.67;;;2.47;;
14141;SDS011;7151;52.246;4.820;2024-01-27T14:20:56;5.67;;;2.87;;
14141;SDS011;7151;52.246;4.820;2024-01-27T14:23:22;5.17;;;2.83;;
14141;SDS011;7151;52.246;4.820;2024-01-27T14:25:48;3.97;;;2.33;;
14141;SDS011;7151;52.246;4.820;2024-01-27T14:28:14;6.20;;;3.00;;
14141;SDS011;7151;52.246;4.820;2024-01-27T14:30:42;6.97;;;2.67;;
14141;SDS011;7151;52.246;4.820;2024-01-27T14:33:09;5.90;;;2.97;;
14141;SDS011;7151;52.246;4.820;2024-01-27T14:35:36;10.17;;;2.50;;
14141;SDS011;7151;52.246;4.820;2024-01-27T14:38:01;4.90;;;2.60;;
14141;SDS011;7151;52.246;4.820;2024-01-27T14:40:27;7.60;;;2.60;;
14141;SDS011;7151;52.246;4.820;2024-01-27T14:42:53;5.73;;;2.93;;
14141;SDS011;7151;52.246;4.820;2024-01-27T14:45:18;5.07;;;2.30;;
14141;SDS011;7151;52.246;4.820;2024-01-27T14:47:45;7.77;;;3.00;;
14141;SDS011;7151;52.246;4.820;2024-01-27T14:50:10;6.23;;;2.60;;
14141;SDS011;7151;52.246;4.820;2024-01-27T14:52:36;10.23;;;2.97;;
14141;SDS011;7151;52.246;4.820;2024-01-27T14:55:02;4.53;;;2.47;;
14141;SDS011;7151;52.246;4.820;2024-01-27T14:57:28;5.57;;;2.70;;
14141;SDS011;7151;52.246;4.820;2024-01-27T14:59:53;6.93;;;2.13;;